ADDS METAR Data INFO
IDs: Format: Raw Decoded Include TAF

Data at: 2049 UTC 24 Jun 2018

PAKV 241953Z AUTO 00000KT 10SM CLR 16/05 A3003 RMK SLP172 T01610050 TSNO VIA AUTODIAL
PAKV 241853Z AUTO VRB03KT 10SM CLR 15/06 A3004 RMK SLP176 T01500056 TSNO VIA AUTODIAL
PAKV 241753Z AUTO 00000KT 10SM FEW070 13/05 A3006 RMK SLP180 T01330050 10133 20067 57005 TSNO VIA AUTODIAL
PAKV 241653Z AUTO 23004KT 10SM SCT070 11/06 A3006 RMK SLP182 T01110061 TSNO VIA AUTODIAL
PAKV 241553Z AUTO 26003KT 10SM OVC070 09/05 A3007 RMK SLP184 T00890050 TSNO VIA AUTODIAL
PAKV 241453Z AUTO 00000KT 10SM OVC065 08/04 A3007 RMK SLP186 T00830039 55002 TSNO VIA AUTODIAL
PAKV 241353Z AUTO 22003KT 10SM OVC060 07/04 A3007 RMK SLP184 T00720039 TSNO VIA AUTODIAL
PAKV 241253Z AUTO 00000KT 10SM OVC065 08/04 A3008 RMK SLP188 T00780044 TSNO VIA AUTODIAL
PAKV 241153Z AUTO 24004KT 10SM FEW075 07/04 A3008 RMK SLP188 T00670039 10161 20067 52000 TSNO VIA AUTODIAL
PAKV 241053Z AUTO 22003KT 10SM CLR 08/05 A3008 RMK SLP187 T00830050 TSNO VIA AUTODIAL
PAKV 240953Z AUTO 23003KT 10SM OVC080 10/06 A3008 RMK SLP188 T01000061 TSNO VIA AUTODIAL
PAKV 240853Z AUTO 00000KT 10SM BKN080 11/07 A3008 RMK SLP188 T01060067 401940050 52002 TSNO VIA AUTODIAL
PAKV 240849Z AUTO 00000KT 4SM HZ BKN080 10/07 A3008 RMK TSNO VIA AUTODIAL
PAKV 240839Z AUTO 00000KT 1 1/2SM HZ FEW080 10/07 A3008 RMK VIS 1/2V5 T01000072 TSNO VIA AUTODIAL
PAKV 240753Z AUTO 00000KT 10SM FEW060 13/08 A3008 RMK SLP187 T01330078 TSNO VIA AUTODIAL
PAKV 240653Z AUTO 00000KT 10SM FEW070 14/07 A3008 RMK SLP187 T01440067 TSNO VIA AUTODIAL
PAKV 240553Z AUTO VRB05KT 10SM BKN060 OVC080 16/07 A3007 RMK SLP185 60000 T01560067 10194 20156 56002 TSNO VIA AUTODIAL
PAKV 240453Z AUTO VRB05KT 10SM BKN070 OVC090 17/07 A3007 RMK SLP186 T01670067 TSNO VIA AUTODIAL
PAKV 240353Z AUTO VRB06KT 10SM FEW065 18/06 A3007 RMK SLP184 T01830061 TSNO VIA AUTODIAL
PAKV 240253Z AUTO 00000KT 10SM FEW050 BKN065 BKN080 18/06 A3008 RMK RAB15E46 SLP187 P0000 60000 T01830061 58006 TSNO VIA AUTODIAL
PAKV 240153Z AUTO VRB03KT 10SM FEW055 17/05 A3008 RMK SLP189 T01720050 TSNO VIA AUTODIAL
PAKV 240053Z AUTO 04006KT 10SM OVC070 18/08 A3009 RMK RAB32E45 SLP191 P0000 T01780078 TSNO VIA AUTODIAL
PAKV 232353Z AUTO 05005KT 10SM FEW060 OVC080 17/05 A3009 RMK SLP193 T01720050 10189 20133 58006 TSNO VIA AUTODIAL
PAKV 232253Z AUTO 06006KT 10SM FEW070 BKN090 18/06 A3010 RMK SLP196 T01830061 TSNO VIA AUTODIAL
PAKV 232153Z AUTO VRB03KT 10SM SCT080 16/04 A3011 RMK SLP198 T01610044 TSNO VIA AUTODIAL
PAKV 232053Z AUTO 00000KT 10SM BKN080 16/06 A3011 RMK SLP199 T01610056 58004 TSNO VIA AUTODIAL
PAKV 231953Z AUTO 00000KT 10SM OVC065 16/06 A3012 RMK SLP201 T01560056 TSNO VIA AUTODIAL
PAKV 231853Z AUTO 00000KT 10SM OVC065 15/07 A3012 RMK SLP202 T01500067 TSNO VIA AUTODIAL
PAKV 231753Z AUTO 00000KT 10SM OVC065 13/07 A3012 RMK SLP203 T01330072 10133 20050 50004 TSNO VIA AUTODIAL
PAKV 231653Z AUTO 00000KT 10SM OVC065 12/07 A3013 RMK SLP203 T01220072 TSNO VIA AUTODIAL
PAKV 231553Z AUTO 25006KT 10SM BKN065 10/06 A3012 RMK SLP202 T01000061 TSNO VIA AUTODIAL
PAKV 231453Z AUTO 24004KT 10SM CLR 08/06 A3011 RMK SLP199 T00780056 51008 TSNO VIA AUTODIAL
PAKV 231353Z AUTO 22004KT 10SM CLR 06/04 A3010 RMK SLP196 T00560044 TSNO VIA AUTODIAL
PAKV 231253Z AUTO 22005KT 10SM CLR 06/04 A3010 RMK SLP194 T00560044 TSNO VIA AUTODIAL
PAKV 231153Z AUTO 23003KT 10SM BKN100 06/05 A3009 RMK SLP190 T00610050 10172 20056 51012 TSNO VIA AUTODIAL
PAKV 231053Z AUTO 23003KT 10SM CLR 06/05 A3008 RMK SLP187 T00610050 TSNO VIA AUTODIAL
PAKV 230953Z AUTO 00000KT 10SM CLR 08/07 A3007 RMK SLP183 T00780067 TSNO VIA AUTODIAL
PAKV 230853Z AUTO 22004KT 10SM CLR 10/08 A3005 RMK SLP178 T01000078 401940100 51017 TSNO VIA AUTODIAL